Darlington, South Carolina
Current Conditions -  °F | °C
As of 4:35 AM on Monday 24 Nov 2014 (Local Time) from KUDG Reporting Station
Broken Clouds Broken Clouds  
Wind Chill: 64°   Ceiling: 2700
Heat Index: 64°   Visibility: 10mi
Dew Point: 59°   Wind: 6mph
Humidity: 83%   Direction: 230°SW
Pressure: 29.81"   Gusts: NA
Location:  34.3°N, 79.87°W
Report Text: KUDG 240935Z AUTO 23005KT 10SM BKN027 18/15 A2981 RMK AO1
Loading
Personal Weather Stations






























Interactive Weather Map New forecast layout! Learn more

10-Day Weather Forecast

Advertisements
Track Severe Weather on mobile